sensor_id;sensor_type;location;lat;lon;timestamp;P1;durP1;ratioP1;P2;durP2;ratioP2
21786;SDS011;11055;50.870;4.316;2024-01-30T00:00:14;9.13;;;5.40;;
21786;SDS011;11055;50.870;4.316;2024-01-30T00:02:40;6.55;;;5.10;;
21786;SDS011;11055;50.870;4.316;2024-01-30T00:05:08;6.40;;;4.90;;
21786;SDS011;11055;50.870;4.316;2024-01-30T00:07:33;7.65;;;5.13;;
21786;SDS011;11055;50.870;4.316;2024-01-30T00:09:59;8.38;;;5.30;;
21786;SDS011;11055;50.870;4.316;2024-01-30T00:12:25;5.70;;;5.07;;
21786;SDS011;11055;50.870;4.316;2024-01-30T00:14:51;6.63;;;5.03;;
21786;SDS011;11055;50.870;4.316;2024-01-30T00:17:17;6.75;;;4.82;;
21786;SDS011;11055;50.870;4.316;2024-01-30T00:19:44;5.88;;;4.90;;
21786;SDS011;11055;50.870;4.316;2024-01-30T00:22:09;6.35;;;5.18;;
21786;SDS011;11055;50.870;4.316;2024-01-30T00:24:35;8.48;;;4.78;;
21786;SDS011;11055;50.870;4.316;2024-01-30T00:27:01;6.95;;;5.15;;
21786;SDS011;11055;50.870;4.316;2024-01-30T00:29:27;6.90;;;5.15;;
21786;SDS011;11055;50.870;4.316;2024-01-30T00:31:56;8.20;;;5.40;;
21786;SDS011;11055;50.870;4.316;2024-01-30T00:34:21;8.88;;;5.18;;
21786;SDS011;11055;50.870;4.316;2024-01-30T00:36:47;8.68;;;5.38;;
21786;SDS011;11055;50.870;4.316;2024-01-30T00:39:13;6.88;;;4.97;;
21786;SDS011;11055;50.870;4.316;2024-01-30T00:41:40;6.85;;;5.25;;
21786;SDS011;11055;50.870;4.316;2024-01-30T00:44:06;8.40;;;5.38;;
21786;SDS011;11055;50.870;4.316;2024-01-30T00:46:32;6.90;;;5.47;;
21786;SDS011;11055;50.870;4.316;2024-01-30T00:48:57;7.88;;;5.13;;
21786;SDS011;11055;50.870;4.316;2024-01-30T00:51:23;8.70;;;5.45;;
21786;SDS011;11055;50.870;4.316;2024-01-30T00:53:49;7.85;;;5.28;;
21786;SDS011;11055;50.870;4.316;2024-01-30T00:56:15;7.38;;;5.20;;
21786;SDS011;11055;50.870;4.316;2024-01-30T00:58:43;7.22;;;5.32;;
21786;SDS011;11055;50.870;4.316;2024-01-30T01:01:09;7.40;;;5.00;;
21786;SDS011;11055;50.870;4.316;2024-01-30T01:03:34;7.22;;;5.07;;
21786;SDS011;11055;50.870;4.316;2024-01-30T01:06:00;7.60;;;5.05;;
21786;SDS011;11055;50.870;4.316;2024-01-30T01:08:26;7.18;;;5.22;;
21786;SDS011;11055;50.870;4.316;2024-01-30T01:10:51;6.35;;;5.30;;
21786;SDS011;11055;50.870;4.316;2024-01-30T01:13:17;9.40;;;5.10;;
21786;SDS011;11055;50.870;4.316;2024-01-30T01:15:43;7.30;;;5.03;;
21786;SDS011;11055;50.870;4.316;2024-01-30T01:18:08;8.07;;;5.68;;
21786;SDS011;11055;50.870;4.316;2024-01-30T01:20:34;7.53;;;4.97;;
21786;SDS011;11055;50.870;4.316;2024-01-30T01:23:00;8.93;;;5.70;;
21786;SDS011;11055;50.870;4.316;2024-01-30T01:25:26;6.82;;;4.80;;
21786;SDS011;11055;50.870;4.316;2024-01-30T01:27:52;6.10;;;4.82;;
21786;SDS011;11055;50.870;4.316;2024-01-30T01:30:17;7.40;;;4.57;;
21786;SDS011;11055;50.870;4.316;2024-01-30T01:32:50;7.00;;;4.93;;
21786;SDS011;11055;50.870;4.316;2024-01-30T01:35:23;8.23;;;4.80;;
21786;SDS011;11055;50.870;4.316;2024-01-30T01:37:52;6.45;;;4.70;;
21786;SDS011;11055;50.870;4.316;2024-01-30T01:40:26;5.83;;;4.83;;
21786;SDS011;11055;50.870;4.316;2024-01-30T01:42:53;7.30;;;5.00;;
21786;SDS011;11055;50.870;4.316;2024-01-30T01:45:21;6.68;;;5.05;;
21786;SDS011;11055;50.870;4.316;2024-01-30T01:47:51;5.78;;;4.80;;
21786;SDS011;11055;50.870;4.316;2024-01-30T01:50:17;7.32;;;5.13;;
21786;SDS011;11055;50.870;4.316;2024-01-30T01:52:43;7.93;;;4.53;;
21786;SDS011;11055;50.870;4.316;2024-01-30T01:55:11;6.88;;;4.93;;
21786;SDS011;11055;50.870;4.316;2024-01-30T01:57:38;6.82;;;5.03;;
21786;SDS011;11055;50.870;4.316;2024-01-30T02:00:04;9.60;;;5.18;;
21786;SDS011;11055;50.870;4.316;2024-01-30T02:02:30;7.53;;;5.10;;
21786;SDS011;11055;50.870;4.316;2024-01-30T02:05:01;7.63;;;5.20;;
21786;SDS011;11055;50.870;4.316;2024-01-30T02:07:30;6.40;;;4.78;;
21786;SDS011;11055;50.870;4.316;2024-01-30T02:09:56;8.25;;;4.95;;
21786;SDS011;11055;50.870;4.316;2024-01-30T02:12:21;8.35;;;5.28;;
21786;SDS011;11055;50.870;4.316;2024-01-30T02:14:48;6.20;;;5.22;;
21786;SDS011;11055;50.870;4.316;2024-01-30T02:17:15;7.75;;;5.40;;
21786;SDS011;11055;50.870;4.316;2024-01-30T02:19:41;7.10;;;4.93;;
21786;SDS011;11055;50.870;4.316;2024-01-30T02:22:07;8.30;;;5.18;;
21786;SDS011;11055;50.870;4.316;2024-01-30T02:24:34;7.18;;;5.10;;
21786;SDS011;11055;50.870;4.316;2024-01-30T02:26:59;10.30;;;5.20;;
21786;SDS011;11055;50.870;4.316;2024-01-30T02:29:25;7.68;;;5.35;;
21786;SDS011;11055;50.870;4.316;2024-01-30T02:31:51;7.72;;;5.65;;
21786;SDS011;11055;50.870;4.316;2024-01-30T02:34:17;10.38;;;5.07;;
21786;SDS011;11055;50.870;4.316;2024-01-30T02:36:44;9.63;;;5.05;;
21786;SDS011;11055;50.870;4.316;2024-01-30T02:39:10;7.97;;;5.35;;
21786;SDS011;11055;50.870;4.316;2024-01-30T02:41:36;7.15;;;5.05;;
21786;SDS011;11055;50.870;4.316;2024-01-30T02:44:02;9.52;;;5.63;;
21786;SDS011;11055;50.870;4.316;2024-01-30T02:46:28;7.47;;;5.30;;
21786;SDS011;11055;50.870;4.316;2024-01-30T02:48:54;9.65;;;5.20;;
21786;SDS011;11055;50.870;4.316;2024-01-30T02:51:20;5.85;;;4.63;;
21786;SDS011;11055;50.870;4.316;2024-01-30T02:53:46;7.07;;;4.97;;
21786;SDS011;11055;50.870;4.316;2024-01-30T02:56:11;9.70;;;5.15;;
21786;SDS011;11055;50.870;4.316;2024-01-30T02:58:38;10.48;;;5.43;;
21786;SDS011;11055;50.870;4.316;2024-01-30T03:01:04;7.45;;;4.63;;
21786;SDS011;11055;50.870;4.316;2024-01-30T03:03:30;8.73;;;5.82;;
21786;SDS011;11055;50.870;4.316;2024-01-30T03:05:56;7.97;;;5.93;;
21786;SDS011;11055;50.870;4.316;2024-01-30T03:08:22;7.78;;;4.82;;
21786;SDS011;11055;50.870;4.316;2024-01-30T03:10:48;8.38;;;4.97;;
21786;SDS011;11055;50.870;4.316;2024-01-30T03:13:13;6.88;;;4.95;;
21786;SDS011;11055;50.870;4.316;2024-01-30T03:15:39;7.65;;;5.20;;
21786;SDS011;11055;50.870;4.316;2024-01-30T03:18:05;9.52;;;5.63;;
21786;SDS011;11055;50.870;4.316;2024-01-30T03:20:30;10.93;;;5.97;;
21786;SDS011;11055;50.870;4.316;2024-01-30T03:22:56;9.02;;;5.72;;
21786;SDS011;11055;50.870;4.316;2024-01-30T03:25:24;10.23;;;5.45;;
21786;SDS011;11055;50.870;4.316;2024-01-30T03:27:50;8.27;;;5.38;;
21786;SDS011;11055;50.870;4.316;2024-01-30T03:30:16;8.40;;;4.90;;
21786;SDS011;11055;50.870;4.316;2024-01-30T03:32:42;6.70;;;5.18;;
21786;SDS011;11055;50.870;4.316;2024-01-30T03:35:09;7.07;;;4.68;;
21786;SDS011;11055;50.870;4.316;2024-01-30T03:37:35;7.45;;;6.03;;
21786;SDS011;11055;50.870;4.316;2024-01-30T03:40:01;7.40;;;5.32;;
21786;SDS011;11055;50.870;4.316;2024-01-30T03:42:27;5.78;;;4.95;;
21786;SDS011;11055;50.870;4.316;2024-01-30T03:44:53;5.55;;;4.75;;
21786;SDS011;11055;50.870;4.316;2024-01-30T03:47:20;9.88;;;5.18;;
21786;SDS011;11055;50.870;4.316;2024-01-30T03:49:46;7.53;;;4.95;;
21786;SDS011;11055;50.870;4.316;2024-01-30T03:52:12;8.02;;;5.10;;
21786;SDS011;11055;50.870;4.316;2024-01-30T03:54:38;8.07;;;5.25;;
21786;SDS011;11055;50.870;4.316;2024-01-30T03:57:03;9.07;;;5.28;;
21786;SDS011;11055;50.870;4.316;2024-01-30T03:59:29;6.32;;;4.63;;
21786;SDS011;11055;50.870;4.316;2024-01-30T04:01:55;7.80;;;5.53;;
21786;SDS011;11055;50.870;4.316;2024-01-30T04:04:21;8.23;;;5.78;;
21786;SDS011;11055;50.870;4.316;2024-01-30T04:06:46;10.88;;;5.88;;
21786;SDS011;11055;50.870;4.316;2024-01-30T04:09:12;10.82;;;6.18;;
21786;SDS011;11055;50.870;4.316;2024-01-30T04:11:41;9.02;;;5.32;;
21786;SDS011;11055;50.870;4.316;2024-01-30T04:14:07;9.02;;;5.45;;
21786;SDS011;11055;50.870;4.316;2024-01-30T04:16:33;9.48;;;5.65;;
21786;SDS011;11055;50.870;4.316;2024-01-30T04:18:58;10.93;;;6.00;;
21786;SDS011;11055;50.870;4.316;2024-01-30T04:21:24;9.00;;;5.35;;
21786;SDS011;11055;50.870;4.316;2024-01-30T04:23:53;7.80;;;5.13;;
21786;SDS011;11055;50.870;4.316;2024-01-30T04:26:19;9.38;;;5.93;;
21786;SDS011;11055;50.870;4.316;2024-01-30T04:28:45;8.35;;;5.90;;
21786;SDS011;11055;50.870;4.316;2024-01-30T04:31:10;9.40;;;5.70;;
21786;SDS011;11055;50.870;4.316;2024-01-30T04:33:36;9.40;;;5.82;;
21786;SDS011;11055;50.870;4.316;2024-01-30T04:36:02;9.43;;;5.97;;
21786;SDS011;11055;50.870;4.316;2024-01-30T04:38:28;8.57;;;5.82;;
21786;SDS011;11055;50.870;4.316;2024-01-30T04:40:54;8.57;;;5.45;;
21786;SDS011;11055;50.870;4.316;2024-01-30T04:43:20;9.50;;;5.75;;
21786;SDS011;11055;50.870;4.316;2024-01-30T04:45:46;8.00;;;5.82;;
21786;SDS011;11055;50.870;4.316;2024-01-30T04:48:12;10.30;;;5.57;;
21786;SDS011;11055;50.870;4.316;2024-01-30T04:50:38;8.80;;;5.47;;
21786;SDS011;11055;50.870;4.316;2024-01-30T04:53:04;10.32;;;5.60;;
21786;SDS011;11055;50.870;4.316;2024-01-30T04:55:30;7.97;;;5.22;;
21786;SDS011;11055;50.870;4.316;2024-01-30T04:57:55;6.40;;;5.32;;
21786;SDS011;11055;50.870;4.316;2024-01-30T05:00:21;7.40;;;5.60;;
21786;SDS011;11055;50.870;4.316;2024-01-30T05:02:46;8.93;;;5.35;;
21786;SDS011;11055;50.870;4.316;2024-01-30T05:05:12;11.07;;;5.28;;
21786;SDS011;11055;50.870;4.316;2024-01-30T05:07:38;9.07;;;5.50;;
21786;SDS011;11055;50.870;4.316;2024-01-30T05:10:06;10.30;;;5.57;;
21786;SDS011;11055;50.870;4.316;2024-01-30T05:12:31;7.90;;;5.57;;
21786;SDS011;11055;50.870;4.316;2024-01-30T05:14:57;6.43;;;4.88;;
21786;SDS011;11055;50.870;4.316;2024-01-30T05:17:23;9.35;;;5.30;;
21786;SDS011;11055;50.870;4.316;2024-01-30T05:19:48;8.95;;;5.65;;
21786;SDS011;11055;50.870;4.316;2024-01-30T05:22:14;8.23;;;5.60;;
21786;SDS011;11055;50.870;4.316;2024-01-30T05:24:41;8.27;;;5.60;;
21786;SDS011;11055;50.870;4.316;2024-01-30T05:27:09;6.68;;;5.43;;
21786;SDS011;11055;50.870;4.316;2024-01-30T05:29:35;8.18;;;5.38;;
21786;SDS011;11055;50.870;4.316;2024-01-30T05:32:01;9.98;;;5.65;;
21786;SDS011;11055;50.870;4.316;2024-01-30T05:34:27;8.18;;;5.40;;
21786;SDS011;11055;50.870;4.316;2024-01-30T05:36:52;9.55;;;5.93;;
21786;SDS011;11055;50.870;4.316;2024-01-30T05:39:18;7.43;;;5.15;;
21786;SDS011;11055;50.870;4.316;2024-01-30T05:41:43;8.25;;;5.47;;
21786;SDS011;11055;50.870;4.316;2024-01-30T05:44:09;10.20;;;5.65;;
21786;SDS011;11055;50.870;4.316;2024-01-30T05:46:35;8.75;;;5.53;;
21786;SDS011;11055;50.870;4.316;2024-01-30T05:49:01;7.93;;;5.45;;
21786;SDS011;11055;50.870;4.316;2024-01-30T05:51:26;8.93;;;5.85;;
21786;SDS011;11055;50.870;4.316;2024-01-30T05:53:53;8.38;;;6.65;;
21786;SDS011;11055;50.870;4.316;2024-01-30T05:56:20;6.55;;;5.07;;
21786;SDS011;11055;50.870;4.316;2024-01-30T05:58:45;9.25;;;6.00;;
21786;SDS011;11055;50.870;4.316;2024-01-30T06:01:11;8.65;;;5.63;;
21786;SDS011;11055;50.870;4.316;2024-01-30T06:03:37;9.23;;;5.60;;
21786;SDS011;11055;50.870;4.316;2024-01-30T06:06:03;7.05;;;5.15;;
21786;SDS011;11055;50.870;4.316;2024-01-30T06:08:29;9.88;;;5.72;;
21786;SDS011;11055;50.870;4.316;2024-01-30T06:10:55;9.25;;;5.07;;
21786;SDS011;11055;50.870;4.316;2024-01-30T06:13:21;8.18;;;6.20;;
21786;SDS011;11055;50.870;4.316;2024-01-30T06:15:46;6.03;;;5.40;;
21786;SDS011;11055;50.870;4.316;2024-01-30T06:18:12;6.78;;;5.75;;
21786;SDS011;11055;50.870;4.316;2024-01-30T06:20:38;9.32;;;5.75;;
21786;SDS011;11055;50.870;4.316;2024-01-30T06:23:03;6.60;;;5.60;;
21786;SDS011;11055;50.870;4.316;2024-01-30T06:25:29;6.78;;;5.22;;
21786;SDS011;11055;50.870;4.316;2024-01-30T06:27:55;8.15;;;5.80;;
21786;SDS011;11055;50.870;4.316;2024-01-30T06:30:21;7.57;;;5.10;;
21786;SDS011;11055;50.870;4.316;2024-01-30T06:32:46;8.43;;;6.28;;
21786;SDS011;11055;50.870;4.316;2024-01-30T06:35:12;9.40;;;5.65;;
21786;SDS011;11055;50.870;4.316;2024-01-30T06:37:37;8.57;;;5.90;;
21786;SDS011;11055;50.870;4.316;2024-01-30T06:40:03;8.45;;;5.85;;
21786;SDS011;11055;50.870;4.316;2024-01-30T06:42:30;8.63;;;6.47;;
21786;SDS011;11055;50.870;4.316;2024-01-30T06:44:57;8.98;;;5.90;;
21786;SDS011;11055;50.870;4.316;2024-01-30T06:47:23;7.20;;;6.00;;
21786;SDS011;11055;50.870;4.316;2024-01-30T06:49:48;8.40;;;6.15;;
21786;SDS011;11055;50.870;4.316;2024-01-30T06:52:14;10.25;;;6.40;;
21786;SDS011;11055;50.870;4.316;2024-01-30T06:54:40;10.52;;;5.55;;
21786;SDS011;11055;50.870;4.316;2024-01-30T06:57:05;9.48;;;6.53;;
21786;SDS011;11055;50.870;4.316;2024-01-30T06:59:37;6.30;;;5.70;;
21786;SDS011;11055;50.870;4.316;2024-01-30T07:02:12;9.02;;;6.38;;
21786;SDS011;11055;50.870;4.316;2024-01-30T07:04:37;10.55;;;5.82;;
21786;SDS011;11055;50.870;4.316;2024-01-30T07:07:04;9.75;;;6.25;;
21786;SDS011;11055;50.870;4.316;2024-01-30T07:09:30;9.82;;;6.38;;
21786;SDS011;11055;50.870;4.316;2024-01-30T07:11:56;11.50;;;6.40;;
21786;SDS011;11055;50.870;4.316;2024-01-30T07:14:23;10.32;;;5.75;;
21786;SDS011;11055;50.870;4.316;2024-01-30T07:16:50;12.27;;;6.68;;
21786;SDS011;11055;50.870;4.316;2024-01-30T07:19:15;13.60;;;6.63;;
21786;SDS011;11055;50.870;4.316;2024-01-30T07:21:41;10.43;;;6.22;;
21786;SDS011;11055;50.870;4.316;2024-01-30T07:24:07;12.15;;;6.22;;
21786;SDS011;11055;50.870;4.316;2024-01-30T07:26:33;10.05;;;6.38;;
21786;SDS011;11055;50.870;4.316;2024-01-30T07:28:58;12.20;;;6.85;;
21786;SDS011;11055;50.870;4.316;2024-01-30T07:31:24;13.30;;;6.38;;
21786;SDS011;11055;50.870;4.316;2024-01-30T07:33:50;11.18;;;6.40;;
21786;SDS011;11055;50.870;4.316;2024-01-30T07:36:15;11.13;;;6.90;;
21786;SDS011;11055;50.870;4.316;2024-01-30T07:38:41;9.90;;;6.22;;
21786;SDS011;11055;50.870;4.316;2024-01-30T07:41:07;9.98;;;5.97;;
21786;SDS011;11055;50.870;4.316;2024-01-30T07:43:33;14.52;;;6.55;;
21786;SDS011;11055;50.870;4.316;2024-01-30T07:45:58;12.38;;;7.35;;
21786;SDS011;11055;50.870;4.316;2024-01-30T07:48:25;13.38;;;7.45;;
21786;SDS011;11055;50.870;4.316;2024-01-30T07:50:52;14.30;;;6.70;;
21786;SDS011;11055;50.870;4.316;2024-01-30T07:53:18;13.30;;;6.90;;
21786;SDS011;11055;50.870;4.316;2024-01-30T07:55:46;11.13;;;7.65;;
21786;SDS011;11055;50.870;4.316;2024-01-30T07:58:12;12.02;;;7.18;;
21786;SDS011;11055;50.870;4.316;2024-01-30T08:00:38;10.80;;;6.47;;
21786;SDS011;11055;50.870;4.316;2024-01-30T08:03:04;9.85;;;6.82;;
21786;SDS011;11055;50.870;4.316;2024-01-30T08:05:30;11.50;;;6.57;;
21786;SDS011;11055;50.870;4.316;2024-01-30T08:07:55;14.40;;;7.00;;
21786;SDS011;11055;50.870;4.316;2024-01-30T08:10:21;14.23;;;7.40;;
21786;SDS011;11055;50.870;4.316;2024-01-30T08:12:47;12.80;;;6.20;;
21786;SDS011;11055;50.870;4.316;2024-01-30T08:15:13;15.73;;;7.22;;
21786;SDS011;11055;50.870;4.316;2024-01-30T08:17:39;8.88;;;6.57;;
21786;SDS011;11055;50.870;4.316;2024-01-30T08:20:05;15.45;;;7.88;;
21786;SDS011;11055;50.870;4.316;2024-01-30T08:22:33;12.95;;;7.05;;
21786;SDS011;11055;50.870;4.316;2024-01-30T08:24:59;12.25;;;7.38;;
21786;SDS011;11055;50.870;4.316;2024-01-30T08:27:24;12.80;;;7.32;;
21786;SDS011;11055;50.870;4.316;2024-01-30T08:29:50;13.43;;;7.82;;
21786;SDS011;11055;50.870;4.316;2024-01-30T08:32:16;14.40;;;8.23;;
21786;SDS011;11055;50.870;4.316;2024-01-30T08:34:41;12.88;;;7.38;;
21786;SDS011;11055;50.870;4.316;2024-01-30T08:37:07;12.77;;;7.25;;
21786;SDS011;11055;50.870;4.316;2024-01-30T08:39:33;14.35;;;8.05;;
21786;SDS011;11055;50.870;4.316;2024-01-30T08:41:59;17.10;;;8.65;;
21786;SDS011;11055;50.870;4.316;2024-01-30T08:44:25;13.05;;;6.82;;
21786;SDS011;11055;50.870;4.316;2024-01-30T08:46:50;12.00;;;7.10;;
21786;SDS011;11055;50.870;4.316;2024-01-30T08:49:16;12.18;;;7.63;;
21786;SDS011;11055;50.870;4.316;2024-01-30T08:51:42;11.38;;;7.18;;
21786;SDS011;11055;50.870;4.316;2024-01-30T08:54:08;15.60;;;8.00;;
21786;SDS011;11055;50.870;4.316;2024-01-30T08:56:33;10.35;;;7.32;;
21786;SDS011;11055;50.870;4.316;2024-01-30T08:58:59;11.57;;;7.00;;
21786;SDS011;11055;50.870;4.316;2024-01-30T09:01:25;10.63;;;7.18;;
21786;SDS011;11055;50.870;4.316;2024-01-30T09:03:51;12.45;;;7.68;;
21786;SDS011;11055;50.870;4.316;2024-01-30T09:06:17;13.27;;;7.32;;
21786;SDS011;11055;50.870;4.316;2024-01-30T09:08:43;13.38;;;6.90;;
21786;SDS011;11055;50.870;4.316;2024-01-30T09:11:12;13.82;;;6.90;;
21786;SDS011;11055;50.870;4.316;2024-01-30T09:13:38;12.52;;;6.60;;
21786;SDS011;11055;50.870;4.316;2024-01-30T09:16:04;12.25;;;6.68;;
21786;SDS011;11055;50.870;4.316;2024-01-30T09:18:30;11.77;;;6.90;;
21786;SDS011;11055;50.870;4.316;2024-01-30T09:20:56;13.05;;;6.80;;
21786;SDS011;11055;50.870;4.316;2024-01-30T09:23:22;11.13;;;6.22;;
21786;SDS011;11055;50.870;4.316;2024-01-30T09:25:47;9.75;;;6.50;;
21786;SDS011;11055;50.870;4.316;2024-01-30T09:28:13;14.20;;;7.57;;
21786;SDS011;11055;50.870;4.316;2024-01-30T09:30:39;16.77;;;7.05;;
21786;SDS011;11055;50.870;4.316;2024-01-30T09:33:05;13.98;;;7.40;;
21786;SDS011;11055;50.870;4.316;2024-01-30T09:35:31;10.30;;;6.72;;
21786;SDS011;11055;50.870;4.316;2024-01-30T09:37:57;18.08;;;7.57;;
21786;SDS011;11055;50.870;4.316;2024-01-30T09:40:23;13.77;;;7.88;;
21786;SDS011;11055;50.870;4.316;2024-01-30T09:42:52;13.38;;;7.60;;
21786;SDS011;11055;50.870;4.316;2024-01-30T09:45:21;10.07;;;7.70;;
21786;SDS011;11055;50.870;4.316;2024-01-30T09:47:49;12.13;;;7.45;;
21786;SDS011;11055;50.870;4.316;2024-01-30T09:50:15;16.40;;;8.15;;
21786;SDS011;11055;50.870;4.316;2024-01-30T09:52:42;17.23;;;8.00;;
21786;SDS011;11055;50.870;4.316;2024-01-30T09:55:09;13.50;;;8.50;;
21786;SDS011;11055;50.870;4.316;2024-01-30T09:57:35;12.40;;;8.15;;
21786;SDS011;11055;50.870;4.316;2024-01-30T10:00:02;20.20;;;8.90;;
21786;SDS011;11055;50.870;4.316;2024-01-30T10:02:29;13.63;;;8.75;;
21786;SDS011;11055;50.870;4.316;2024-01-30T10:04:58;15.70;;;9.57;;
21786;SDS011;11055;50.870;4.316;2024-01-30T10:07:25;15.73;;;7.95;;
21786;SDS011;11055;50.870;4.316;2024-01-30T10:09:52;14.35;;;8.40;;
21786;SDS011;11055;50.870;4.316;2024-01-30T10:12:18;15.77;;;8.48;;
21786;SDS011;11055;50.870;4.316;2024-01-30T10:14:44;15.00;;;9.15;;
21786;SDS011;11055;50.870;4.316;2024-01-30T10:17:10;16.20;;;8.82;;
21786;SDS011;11055;50.870;4.316;2024-01-30T10:19:37;17.15;;;9.13;;
21786;SDS011;11055;50.870;4.316;2024-01-30T10:22:03;18.65;;;9.02;;
21786;SDS011;11055;50.870;4.316;2024-01-30T10:24:29;15.60;;;9.05;;
21786;SDS011;11055;50.870;4.316;2024-01-30T10:26:55;16.90;;;9.18;;
21786;SDS011;11055;50.870;4.316;2024-01-30T10:29:21;18.02;;;9.32;;
21786;SDS011;11055;50.870;4.316;2024-01-30T10:32:02;13.35;;;9.63;;
21786;SDS011;11055;50.870;4.316;2024-01-30T10:34:30;18.05;;;10.13;;
21786;SDS011;11055;50.870;4.316;2024-01-30T10:37:01;14.95;;;8.63;;
21786;SDS011;11055;50.870;4.316;2024-01-30T10:39:40;13.95;;;7.82;;
21786;SDS011;11055;50.870;4.316;2024-01-30T10:42:11;14.35;;;7.45;;
21786;SDS011;11055;50.870;4.316;2024-01-30T10:47:33;12.00;;;6.40;;
21786;SDS011;11055;50.870;4.316;2024-01-30T10:50:00;14.95;;;6.45;;
21786;SDS011;11055;50.870;4.316;2024-01-30T10:52:28;13.80;;;6.53;;
21786;SDS011;11055;50.870;4.316;2024-01-30T10:54:55;16.50;;;5.90;;
21786;SDS011;11055;50.870;4.316;2024-01-30T10:57:25;11.23;;;6.15;;
21786;SDS011;11055;50.870;4.316;2024-01-30T10:59:52;9.50;;;4.70;;
21786;SDS011;11055;50.870;4.316;2024-01-30T11:02:20;7.35;;;2.58;;
21786;SDS011;11055;50.870;4.316;2024-01-30T11:04:46;6.15;;;2.72;;
21786;SDS011;11055;50.870;4.316;2024-01-30T11:07:16;5.00;;;1.85;;
21786;SDS011;11055;50.870;4.316;2024-01-30T11:09:49;5.95;;;1.98;;
21786;SDS011;11055;50.870;4.316;2024-01-30T11:15:06;8.23;;;2.50;;
21786;SDS011;11055;50.870;4.316;2024-01-30T11:17:49;6.18;;;1.92;;
21786;SDS011;11055;50.870;4.316;2024-01-30T11:22:58;6.70;;;1.50;;
21786;SDS011;11055;50.870;4.316;2024-01-30T11:25:26;2.88;;;1.40;;
21786;SDS011;11055;50.870;4.316;2024-01-30T11:27:53;6.78;;;1.33;;
21786;SDS011;11055;50.870;4.316;2024-01-30T11:30:29;2.17;;;1.23;;
21786;SDS011;11055;50.870;4.316;2024-01-30T11:33:09;4.00;;;0.93;;
21786;SDS011;11055;50.870;4.316;2024-01-30T11:35:37;3.05;;;1.00;;
21786;SDS011;11055;50.870;4.316;2024-01-30T11:38:05;3.50;;;1.10;;
21786;SDS011;11055;50.870;4.316;2024-01-30T11:40:32;2.40;;;1.10;;
21786;SDS011;11055;50.870;4.316;2024-01-30T11:43:00;2.55;;;1.00;;
21786;SDS011;11055;50.870;4.316;2024-01-30T11:45:27;6.65;;;1.58;;
21786;SDS011;11055;50.870;4.316;2024-01-30T11:47:53;2.40;;;1.17;;
21786;SDS011;11055;50.870;4.316;2024-01-30T11:50:19;2.67;;;0.80;;
21786;SDS011;11055;50.870;4.316;2024-01-30T11:52:45;2.88;;;0.82;;
21786;SDS011;11055;50.870;4.316;2024-01-30T11:55:11;1.13;;;0.50;;
21786;SDS011;11055;50.870;4.316;2024-01-30T11:57:38;5.18;;;1.10;;
21786;SDS011;11055;50.870;4.316;2024-01-30T12:00:04;3.65;;;1.27;;
21786;SDS011;11055;50.870;4.316;2024-01-30T12:05:07;2.40;;;0.95;;
21786;SDS011;11055;50.870;4.316;2024-01-30T12:07:34;3.97;;;0.80;;
21786;SDS011;11055;50.870;4.316;2024-01-30T12:10:01;4.45;;;0.95;;
21786;SDS011;11055;50.870;4.316;2024-01-30T12:12:27;3.88;;;1.00;;
21786;SDS011;11055;50.870;4.316;2024-01-30T12:14:54;9.07;;;4.20;;
21786;SDS011;11055;50.870;4.316;2024-01-30T12:17:26;2.47;;;1.15;;
21786;SDS011;11055;50.870;4.316;2024-01-30T12:20:06;6.85;;;1.13;;
21786;SDS011;11055;50.870;4.316;2024-01-30T12:25:08;5.07;;;0.90;;
21786;SDS011;11055;50.870;4.316;2024-01-30T12:27:38;2.92;;;0.93;;
21786;SDS011;11055;50.870;4.316;2024-01-30T12:30:05;4.20;;;1.02;;
21786;SDS011;11055;50.870;4.316;2024-01-30T12:32:34;2.22;;;0.80;;
21786;SDS011;11055;50.870;4.316;2024-01-30T12:35:01;2.22;;;1.05;;
21786;SDS011;11055;50.870;4.316;2024-01-30T12:37:26;3.25;;;1.00;;
21786;SDS011;11055;50.870;4.316;2024-01-30T12:39:52;2.95;;;1.10;;
21786;SDS011;11055;50.870;4.316;2024-01-30T12:42:19;3.10;;;1.00;;
21786;SDS011;11055;50.870;4.316;2024-01-30T12:44:46;5.85;;;1.35;;
21786;SDS011;11055;50.870;4.316;2024-01-30T12:47:12;7.00;;;1.15;;
21786;SDS011;11055;50.870;4.316;2024-01-30T12:49:41;7.05;;;1.02;;
21786;SDS011;11055;50.870;4.316;2024-01-30T12:52:08;5.82;;;1.17;;
21786;SDS011;11055;50.870;4.316;2024-01-30T12:54:33;6.45;;;0.90;;
21786;SDS011;11055;50.870;4.316;2024-01-30T12:56:59;3.13;;;0.70;;
21786;SDS011;11055;50.870;4.316;2024-01-30T12:59:25;4.90;;;1.10;;
21786;SDS011;11055;50.870;4.316;2024-01-30T13:01:50;6.03;;;1.23;;
21786;SDS011;11055;50.870;4.316;2024-01-30T13:04:16;5.68;;;0.80;;
21786;SDS011;11055;50.870;4.316;2024-01-30T13:06:42;3.20;;;1.23;;
21786;SDS011;11055;50.870;4.316;2024-01-30T13:09:07;2.35;;;0.93;;
21786;SDS011;11055;50.870;4.316;2024-01-30T13:11:33;4.13;;;1.23;;
21786;SDS011;11055;50.870;4.316;2024-01-30T13:14:01;4.13;;;1.25;;
21786;SDS011;11055;50.870;4.316;2024-01-30T13:16:26;4.75;;;1.00;;
21786;SDS011;11055;50.870;4.316;2024-01-30T13:18:52;4.43;;;1.20;;
21786;SDS011;11055;50.870;4.316;2024-01-30T13:21:20;9.43;;;1.20;;
21786;SDS011;11055;50.870;4.316;2024-01-30T13:23:46;3.38;;;0.95;;
21786;SDS011;11055;50.870;4.316;2024-01-30T13:26:12;4.80;;;1.15;;
21786;SDS011;11055;50.870;4.316;2024-01-30T13:28:37;5.55;;;1.38;;
21786;SDS011;11055;50.870;4.316;2024-01-30T13:31:03;7.10;;;1.20;;
21786;SDS011;11055;50.870;4.316;2024-01-30T13:33:30;4.70;;;0.85;;
21786;SDS011;11055;50.870;4.316;2024-01-30T13:35:56;3.20;;;1.27;;
21786;SDS011;11055;50.870;4.316;2024-01-30T13:38:21;5.78;;;1.00;;
21786;SDS011;11055;50.870;4.316;2024-01-30T13:40:47;5.55;;;1.10;;
21786;SDS011;11055;50.870;4.316;2024-01-30T13:43:13;3.97;;;0.90;;
21786;SDS011;11055;50.870;4.316;2024-01-30T13:45:38;5.50;;;1.02;;
21786;SDS011;11055;50.870;4.316;2024-01-30T13:48:04;4.72;;;1.15;;
21786;SDS011;11055;50.870;4.316;2024-01-30T13:50:31;4.28;;;0.93;;
21786;SDS011;11055;50.870;4.316;2024-01-30T13:52:58;5.03;;;1.42;;
21786;SDS011;11055;50.870;4.316;2024-01-30T13:55:23;3.97;;;0.95;;
21786;SDS011;11055;50.870;4.316;2024-01-30T13:57:50;2.92;;;0.98;;
21786;SDS011;11055;50.870;4.316;2024-01-30T14:00:16;3.08;;;1.10;;
21786;SDS011;11055;50.870;4.316;2024-01-30T14:02:42;4.70;;;0.88;;
21786;SDS011;11055;50.870;4.316;2024-01-30T14:05:08;5.82;;;1.40;;
21786;SDS011;11055;50.870;4.316;2024-01-30T14:07:35;4.22;;;1.15;;
21786;SDS011;11055;50.870;4.316;2024-01-30T14:10:03;8.65;;;3.65;;
21786;SDS011;11055;50.870;4.316;2024-01-30T14:12:29;4.80;;;1.05;;
21786;SDS011;11055;50.870;4.316;2024-01-30T14:14:55;3.08;;;0.88;;
21786;SDS011;11055;50.870;4.316;2024-01-30T14:17:21;5.95;;;1.30;;
21786;SDS011;11055;50.870;4.316;2024-01-30T14:19:47;2.58;;;1.08;;
21786;SDS011;11055;50.870;4.316;2024-01-30T14:22:12;2.83;;;1.30;;
21786;SDS011;11055;50.870;4.316;2024-01-30T14:24:38;4.13;;;1.30;;
21786;SDS011;11055;50.870;4.316;2024-01-30T14:27:04;3.47;;;1.05;;
21786;SDS011;11055;50.870;4.316;2024-01-30T14:29:30;3.00;;;1.10;;
21786;SDS011;11055;50.870;4.316;2024-01-30T14:31:55;2.25;;;1.02;;
21786;SDS011;11055;50.870;4.316;2024-01-30T14:34:22;2.40;;;1.00;;
21786;SDS011;11055;50.870;4.316;2024-01-30T14:36:47;7.05;;;1.27;;
21786;SDS011;11055;50.870;4.316;2024-01-30T14:39:14;7.18;;;1.15;;
21786;SDS011;11055;50.870;4.316;2024-01-30T14:41:40;2.97;;;1.10;;
21786;SDS011;11055;50.870;4.316;2024-01-30T14:44:06;4.47;;;0.90;;
21786;SDS011;11055;50.870;4.316;2024-01-30T14:46:33;6.78;;;1.20;;
21786;SDS011;11055;50.870;4.316;2024-01-30T14:48:58;2.92;;;1.10;;
21786;SDS011;11055;50.870;4.316;2024-01-30T14:51:24;4.45;;;1.60;;